Southlake, Texas
Current Conditions -  °F | °C
As of 10:53 PM on Friday 28 Nov 2014 (Local Time) from KDFW Reporting Station
Few Clouds Few Clouds  
Wind Chill: 58°   Ceiling: Unl
Heat Index: 58°   Visibility: 10mi
Dew Point: 46°   Wind: 15mph
Humidity: 65%   Direction: 190°S
Pressure: 29.97"   Gusts: NA
Location:  32.95°N, 97.13°W
Report Text: KDFW 290453Z 19013KT 10SM FEW300 14/08 A2997 RMK AO2 SLP146 T01440078
Loading
Personal Weather Stations






























Interactive Weather Map New forecast layout! Learn more

10-Day Weather Forecast

Advertisements
Track Severe Weather on mobile